Time;durP1;ratioP1;P1;durP2;ratioP2;P2;SDS_P1;SDS_P2;PMS_P1;PMS_P2;Temp;Humidity;BMP_temperature;BMP_pressure;BME280_temperature;BME280_humidity;BME280_pressure;Samples;Min_cycle;Max_cycle;Signal;HPM_P1;HPM_P2
2024/03/18 00:00:31;;;;;;;5.60;1.70;;;;;;;0.18;80.05;101759.16;105709;1256;60883;-67
2024/03/18 00:03:20;;;;;;;8.10;1.70;;;;;;;0.20;79.71;101758.80;104599;1257;138451;-66
2024/03/18 00:05:46;;;;;;;7.10;1.60;;;;;;;0.21;79.66;101760.12;104712;1258;67308;-67
2024/03/18 00:08:14;;;;;;;4.20;1.60;;;;;;;0.18;79.63;101757.29;104427;1256;73491;-67
2024/03/18 00:10:41;;;;;;;5.80;1.50;;;;;;;0.18;79.62;101750.90;104327;1262;138374;-66
2024/03/18 00:13:07;;;;;;;7.10;2.10;;;;;;;0.20;79.65;101747.41;104443;1257;62055;-66
2024/03/18 00:15:34;;;;;;;4.80;1.30;;;;;;;0.22;79.57;101748.80;104363;1256;138645;-62
2024/03/18 00:18:01;;;;;;;5.30;1.60;;;;;;;0.21;79.27;101748.38;104870;1256;62113;-64
2024/03/18 00:20:27;;;;;;;5.30;1.90;;;;;;;0.19;79.38;101744.10;104819;1256;73594;-62
2024/03/18 00:22:54;;;;;;;4.70;1.60;;;;;;;0.22;79.44;101730.27;108802;1256;138822;-63
2024/03/18 00:25:21;;;;;;;5.50;1.90;;;;;;;0.26;79.41;101727.53;108881;1256;61342;-63
2024/03/18 00:27:47;;;;;;;6.10;2.00;;;;;;;0.32;79.08;101727.16;108798;1256;138839;-62
2024/03/18 00:30:15;;;;;;;4.90;1.70;;;;;;;0.36;78.93;101724.04;109009;1256;60057;-63
2024/03/18 00:32:41;;;;;;;7.80;1.80;;;;;;;0.42;78.74;101724.30;108688;1256;71441;-62
2024/03/18 00:35:13;;;;;;;6.40;2.00;;;;;;;0.49;78.58;101725.58;108518;1256;60626;-62
2024/03/18 00:37:40;;;;;;;5.70;1.70;;;;;;;0.53;78.62;101725.73;108528;1256;59880;-63
2024/03/18 00:40:09;;;;;;;4.90;1.90;;;;;;;0.55;79.90;101722.98;108433;1256;138965;-67
2024/03/18 00:42:36;;;;;;;6.30;2.20;;;;;;;0.54;80.33;101723.06;105540;1259;66937;-67
2024/03/18 00:45:04;;;;;;;5.00;1.70;;;;;;;0.52;80.30;101721.55;108824;1256;138981;-68
2024/03/18 00:47:31;;;;;;;11.80;2.40;;;;;;;0.52;80.21;101724.46;108917;1256;60186;-67
2024/03/18 00:49:58;;;;;;;7.00;2.00;;;;;;;0.54;79.93;101723.42;108972;1256;61275;-67
2024/03/18 00:52:25;;;;;;;5.40;2.20;;;;;;;0.54;79.62;101723.73;108716;1256;138521;-67
2024/03/18 00:54:52;;;;;;;3.80;1.70;;;;;;;0.54;79.57;101730.34;108422;1256;66133;-68
2024/03/18 00:57:18;;;;;;;3.60;1.70;;;;;;;0.54;79.48;101724.66;108282;1256;138532;-67
2024/03/18 00:59:45;;;;;;;5.80;2.00;;;;;;;0.55;79.46;101724.38;107973;1255;60669;-67
2024/03/18 01:02:11;;;;;;;3.80;1.70;;;;;;;0.57;79.84;101727.50;104584;1257;62395;-67
2024/03/18 01:04:38;;;;;;;6.30;1.60;;;;;;;0.57;79.97;101723.30;104639;1256;138630;-67
2024/03/18 01:07:06;;;;;;;7.60;1.90;;;;;;;0.53;79.84;101728.73;104835;1262;66768;-67
2024/03/18 01:09:33;;;;;;;6.30;1.80;;;;;;;0.52;80.12;101728.27;104686;1258;138220;-67
2024/03/18 01:12:00;;;;;;;5.90;2.20;;;;;;;0.55;80.40;101730.05;106610;1258;62064;-67
2024/03/18 01:14:26;;;;;;;4.80;2.40;;;;;;;0.55;80.26;101722.82;104546;1261;62194;-67
2024/03/18 01:16:53;;;;;;;9.00;2.50;;;;;;;0.53;80.35;101715.91;104139;1262;140410;-63
2024/03/18 01:19:20;;;;;;;5.60;2.20;;;;;;;0.51;80.53;101718.83;104256;1256;65789;-63
2024/03/18 01:21:46;;;;;;;5.00;1.90;;;;;;;0.51;80.79;101723.67;104281;1256;138239;-68
2024/03/18 01:24:13;;;;;;;5.30;1.80;;;;;;;0.50;80.65;101721.90;104928;1259;62170;-66
2024/03/18 01:26:39;;;;;;;7.60;2.40;;;;;;;0.50;80.64;101721.02;104802;1262;62058;-65
2024/03/18 01:29:06;;;;;;;6.50;2.20;;;;;;;0.51;80.73;101720.43;104704;1256;138800;-67
2024/03/18 01:31:32;;;;;;;6.20;1.90;;;;;;;0.53;80.62;101716.08;104795;1260;62052;-69
2024/03/18 01:34:00;;;;;;;9.50;2.20;;;;;;;0.57;80.67;101714.33;104559;1256;138373;-69
2024/03/18 01:36:27;;;;;;;5.90;2.10;;;;;;;0.62;80.71;101711.64;105139;1256;62198;-68
2024/03/18 01:38:54;;;;;;;4.30;2.00;;;;;;;0.66;80.42;101710.38;104394;1256;138698;-67
2024/03/18 01:41:21;;;;;;;5.80;1.90;;;;;;;0.69;80.35;101706.81;104457;1257;74518;-63
2024/03/18 01:43:48;;;;;;;6.10;2.20;;;;;;;0.72;80.20;101709.46;104186;1262;64897;-63
2024/03/18 01:46:19;;;;;;;7.30;2.20;;;;;;;0.76;80.26;101708.59;104218;1262;138588;-63
2024/03/18 01:48:46;;;;;;;7.80;2.40;;;;;;;0.79;80.37;101705.55;104543;1265;62160;-63
2024/03/18 01:51:12;;;;;;;3.90;1.60;;;;;;;0.79;80.34;101708.68;104619;1256;138782;-63
2024/03/18 01:53:39;;;;;;;5.70;2.00;;;;;;;0.78;80.30;101705.49;104750;1262;74747;-63
2024/03/18 01:56:09;;;;;;;3.50;1.70;;;;;;;0.80;80.32;101713.20;104764;1260;66767;-61
2024/03/18 01:58:40;;;;;;;5.50;2.10;;;;;;;0.81;80.23;101712.27;108866;1256;138362;-62
2024/03/18 02:01:08;;;;;;;6.20;2.00;;;;;;;0.81;80.31;101712.09;106816;1257;60415;-62
2024/03/18 02:03:35;;;;;;;4.70;2.00;;;;;;;0.84;80.39;101710.13;104091;1261;138465;-63
2024/03/18 02:06:02;;;;;;;4.60;2.20;;;;;;;0.86;80.59;101710.08;104239;1256;76413;-62
2024/03/18 02:08:30;;;;;;;3.80;1.70;;;;;;;0.89;80.35;101711.84;108028;1256;67258;-63
2024/03/18 02:10:56;;;;;;;4.60;1.80;;;;;;;0.90;80.14;101712.27;108549;1256;138343;-62
2024/03/18 02:13:23;;;;;;;4.00;1.70;;;;;;;0.92;80.05;101706.60;108949;1256;59841;-62
2024/03/18 02:15:50;;;;;;;4.50;1.80;;;;;;;0.99;80.01;101712.10;108910;1256;139182;-62
2024/03/18 02:18:16;;;;;;;6.10;2.10;;;;;;;0.99;80.32;101714.38;109041;1256;75545;-62
2024/03/18 02:20:43;;;;;;;3.30;1.60;;;;;;;0.93;80.51;101713.89;108899;1256;138478;-62
2024/03/18 02:23:11;;;;;;;5.00;1.80;;;;;;;0.87;81.29;101708.64;108903;1257;70948;-62
2024/03/18 02:25:39;;;;;;;4.70;2.20;;;;;;;0.88;81.35;101709.52;108920;1255;60098;-62
2024/03/18 02:28:06;;;;;;;6.90;2.10;;;;;;;0.88;81.36;101708.81;108828;1255;138581;-61
2024/03/18 02:30:32;;;;;;;7.90;2.10;;;;;;;0.89;81.38;101710.70;108430;1260;75943;-62
2024/03/18 02:32:59;;;;;;;4.00;2.00;;;;;;;0.88;81.41;101711.27;108249;1256;138412;-62
2024/03/18 02:35:25;;;;;;;3.80;1.80;;;;;;;0.81;81.79;101709.70;106251;1260;72495;-66
2024/03/18 02:37:52;;;;;;;4.50;2.00;;;;;;;0.72;84.60;101713.63;104619;1256;62096;-62
2024/03/18 02:40:18;;;;;;;4.20;2.00;;;;;;;0.64;89.13;101710.53;104803;1257;138429;-62
2024/03/18 02:42:45;;;;;;;4.70;1.80;;;;;;;0.59;91.03;101718.44;104786;1259;76226;-62
2024/03/18 02:45:12;;;;;;;3.30;1.90;;;;;;;0.54;92.08;101706.33;104399;1257;138680;-62
2024/03/18 02:47:39;;;;;;;5.50;2.40;;;;;;;0.52;92.89;101712.04;104628;1263;72604;-62
2024/03/18 02:50:07;;;;;;;8.20;2.40;;;;;;;0.50;93.24;101711.73;108902;1256;60114;-62
2024/03/18 02:52:36;;;;;;;6.70;2.50;;;;;;;0.52;92.94;101711.00;108857;1256;138613;-62
2024/03/18 02:55:03;;;;;;;4.50;2.30;;;;;;;0.56;92.32;101711.38;106985;1256;74503;-61
2024/03/18 02:57:29;;;;;;;4.90;2.20;;;;;;;0.55;91.86;101705.25;104898;1256;138260;-60
2024/03/18 02:59:56;;;;;;;3.20;2.10;;;;;;;0.55;91.41;101701.55;104750;1262;70270;-61
2024/03/18 03:02:23;;;;;;;3.70;2.10;;;;;;;0.55;90.56;101701.04;104751;1261;62109;-62
2024/03/18 03:04:50;;;;;;;5.70;2.00;;;;;;;0.56;89.99;101696.14;104179;1262;138340;-62
2024/03/18 03:07:16;;;;;;;9.90;2.50;;;;;;;0.58;89.66;101706.33;104330;1262;76395;-62
2024/03/18 03:09:43;;;;;;;5.50;2.00;;;;;;;0.55;90.39;101703.66;104300;1257;138142;-62
2024/03/18 03:12:09;;;;;;;2.50;1.80;;;;;;;0.54;90.80;101706.02;104593;1256;72456;-62
2024/03/18 03:14:36;;;;;;;3.60;1.80;;;;;;;0.51;90.69;101703.98;104911;1260;62075;-62
2024/03/18 03:17:03;;;;;;;5.00;2.10;;;;;;;0.50;90.89;101702.73;104628;1261;138016;-62
2024/03/18 03:19:29;;;;;;;4.20;2.10;;;;;;;0.51;90.98;101703.30;104789;1257;74324;-62
2024/03/18 03:21:56;;;;;;;5.30;2.60;;;;;;;0.48;90.96;101705.52;104837;1263;138578;-62
2024/03/18 03:24:23;;;;;;;6.40;2.20;;;;;;;0.48;91.65;101706.35;104767;1259;72159;-62
2024/03/18 03:26:50;;;;;;;6.90;2.60;;;;;;;0.48;91.62;101701.36;104602;1259;138828;-62
2024/03/18 03:29:17;;;;;;;4.10;2.10;;;;;;;0.49;90.89;101702.64;108967;1256;60748;-62
2024/03/18 03:31:43;;;;;;;5.80;1.90;;;;;;;0.50;90.54;101705.83;108687;1256;75526;-62
2024/03/18 03:34:10;;;;;;;6.30;2.00;;;;;;;0.51;90.04;101709.20;108145;1257;139881;-62
2024/03/18 03:36:40;;;;;;;7.70;2.50;;;;;;;0.51;89.67;101707.45;108099;1259;72760;-62
2024/03/18 03:39:08;;;;;;;8.10;2.40;;;;;;;0.54;89.19;101711.83;107965;1260;140518;-62
2024/03/18 03:41:35;;;;;;;4.10;2.60;;;;;;;0.58;89.06;101709.24;108173;1256;60998;-62
2024/03/18 03:44:01;;;;;;;4.60;2.60;;;;;;;0.62;88.86;101707.31;108986;1256;73873;-61
2024/03/18 03:46:28;;;;;;;2.80;1.70;;;;;;;0.65;88.69;101711.88;107597;1262;139032;-61
2024/03/18 03:48:54;;;;;;;3.80;2.00;;;;;;;0.66;88.28;101716.81;104755;1256;71717;-62
2024/03/18 03:51:21;;;;;;;4.50;2.10;;;;;;;0.64;88.43;101717.33;104726;1260;138791;-61
2024/03/18 03:53:47;;;;;;;7.00;2.30;;;;;;;0.64;88.36;101721.09;104831;1256;62119;-68
2024/03/18 03:56:14;;;;;;;5.40;2.20;;;;;;;0.60;88.49;101716.46;104628;1257;62089;-68
2024/03/18 03:58:46;;;;;;;6.40;2.50;;;;;;;0.58;88.84;101719.27;103995;1262;139359;-68
2024/03/18 04:01:14;;;;;;;5.20;2.40;;;;;;;0.57;88.80;101713.67;104186;1257;73258;-62
2024/03/18 04:03:43;;;;;;;4.20;2.20;;;;;;;0.58;88.73;101716.31;103875;1266;138813;-61
2024/03/18 04:06:10;;;;;;;6.90;2.30;;;;;;;0.54;88.38;101717.36;108594;1257;59951;-62
2024/03/18 04:08:37;;;;;;;4.70;2.00;;;;;;;0.52;88.62;101715.84;108928;1256;74137;-62
2024/03/18 04:11:04;;;;;;;8.80;2.60;;;;;;;0.56;88.63;101717.01;108632;1256;138124;-62
2024/03/18 04:13:31;;;;;;;5.30;2.10;;;;;;;0.60;88.48;101717.70;108308;1257;71366;-62
2024/03/18 04:15:58;;;;;;;5.50;2.40;;;;;;;0.63;88.50;101714.31;108148;1257;138798;-67
2024/03/18 04:18:24;;;;;;;4.20;2.40;;;;;;;0.66;88.35;101712.44;108482;1257;61528;-68
2024/03/18 04:20:51;;;;;;;9.20;2.50;;;;;;;0.67;88.17;101714.63;108511;1256;138665;-67
2024/03/18 04:23:19;;;;;;;6.00;2.60;;;;;;;0.71;88.29;101718.20;105056;1260;66773;-62
2024/03/18 04:25:45;;;;;;;3.90;2.30;;;;;;;0.76;88.25;101720.88;104661;1260;73642;-62
2024/03/18 04:28:12;;;;;;;2.70;2.10;;;;;;;0.77;88.29;101727.69;104604;1259;138362;-64
2024/03/18 04:30:39;;;;;;;3.10;2.00;;;;;;;0.74;87.99;101718.81;104738;1258;62766;-63
2024/03/18 04:33:06;;;;;;;5.60;2.40;;;;;;;0.72;88.01;101716.75;104269;1260;138730;-64
2024/03/18 04:35:32;;;;;;;3.50;2.20;;;;;;;0.72;87.94;101715.69;104382;1260;67099;-62
2024/03/18 04:38:00;;;;;;;4.60;2.10;;;;;;;0.74;87.73;101717.08;104439;1261;71814;-63
2024/03/18 04:40:27;;;;;;;2.80;2.00;;;;;;;0.75;87.85;101713.33;108377;1259;138344;-63
2024/03/18 04:42:55;;;;;;;5.80;2.50;;;;;;;0.77;87.96;101712.15;108881;1257;59825;-63
2024/03/18 04:45:22;;;;;;;4.60;2.30;;;;;;;0.78;87.79;101713.79;106430;1257;138778;-63
2024/03/18 04:47:50;;;;;;;7.10;2.60;;;;;;;0.81;87.82;101715.91;108827;1257;67239;-63
2024/03/18 04:50:19;;;;;;;4.20;2.30;;;;;;;0.86;87.79;101711.80;109008;1257;71449;-63
2024/03/18 04:52:46;;;;;;;5.80;2.10;;;;;;;0.88;87.52;101711.77;108809;1259;138190;-63
2024/03/18 04:55:13;;;;;;;8.10;2.30;;;;;;;0.88;87.34;101714.60;108847;1257;60223;-63
2024/03/18 04:57:40;;;;;;;7.90;2.60;;;;;;;0.90;87.37;101712.52;108527;1257;138877;-62
2024/03/18 05:00:16;;;;;;;7.50;2.50;;;;;;;0.90;87.24;101709.73;107059;1261;66833;-62
2024/03/18 05:02:43;;;;;;;4.00;2.10;;;;;;;0.93;87.10;101711.67;108280;1257;138524;-63
2024/03/18 05:05:12;;;;;;;4.10;2.20;;;;;;;0.95;86.93;101714.95;104743;1260;62042;-62
2024/03/18 05:07:39;;;;;;;5.70;2.40;;;;;;;0.94;86.95;101713.87;108760;1257;60129;-65
2024/03/18 05:10:06;;;;;;;3.50;1.90;;;;;;;0.96;86.84;101715.56;105502;1260;138493;-65
2024/03/18 05:12:33;;;;;;;6.40;2.60;;;;;;;0.98;86.85;101719.00;104817;1265;66795;-65
2024/03/18 05:14:59;;;;;;;5.30;2.40;;;;;;;1.01;87.01;101716.81;104758;1261;139060;-65
2024/03/18 05:17:26;;;;;;;6.50;2.50;;;;;;;1.04;86.87;101722.72;104767;1257;61987;-66
2024/03/18 05:19:53;;;;;;;5.90;2.30;;;;;;;1.00;86.74;101714.83;104487;1263;62094;-66
2024/03/18 05:22:20;;;;;;;9.50;3.90;;;;;;;0.97;86.70;101717.69;104607;1257;138395;-66
2024/03/18 05:24:47;;;;;;;5.00;2.40;;;;;;;0.93;86.61;101720.35;104425;1264;65147;-66
2024/03/18 05:27:15;;;;;;;5.70;2.10;;;;;;;0.95;87.06;101721.36;104250;1260;138619;-65
2024/03/18 05:29:41;;;;;;;5.80;1.80;;;;;;;0.96;87.23;101717.66;108455;1257;61167;-67
2024/03/18 05:32:09;;;;;;;4.60;2.10;;;;;;;1.01;87.26;101718.14;108373;1257;60972;-68
2024/03/18 05:34:36;;;;;;;6.80;2.30;;;;;;;1.04;86.92;101713.41;108326;1256;138170;-66
2024/03/18 05:37:03;;;;;;;4.80;2.20;;;;;;;1.09;87.03;101716.58;105476;1262;67393;-68
2024/03/18 05:39:30;;;;;;;9.50;2.40;;;;;;;1.14;86.79;101713.66;104785;1258;138616;-64
2024/03/18 05:41:57;;;;;;;5.50;3.10;;;;;;;1.19;86.79;101716.46;108295;1256;61750;-64
2024/03/18 05:44:24;;;;;;;5.80;2.40;;;;;;;1.22;86.65;101719.67;108298;1257;62018;-65
2024/03/18 05:46:51;;;;;;;5.70;2.20;;;;;;;1.31;86.63;101717.92;108470;1257;138259;-63
2024/03/18 05:49:19;;;;;;;4.30;1.70;;;;;;;1.42;86.51;101726.52;108829;1257;65505;-64
2024/03/18 05:51:48;;;;;;;3.40;1.70;;;;;;;1.49;86.14;101721.17;105635;1260;138687;-64
2024/03/18 05:54:15;;;;;;;4.70;2.00;;;;;;;1.57;85.98;101719.36;108852;1262;60179;-65
2024/03/18 05:56:42;;;;;;;4.60;2.00;;;;;;;1.63;85.98;101721.44;108281;1257;138407;-62
2024/03/18 05:59:13;;;;;;;3.10;1.70;;;;;;;1.66;85.93;101721.13;104540;1261;76698;-63
2024/03/18 06:01:39;;;;;;;5.40;1.50;;;;;;;1.67;85.70;101721.91;104149;1258;68609;-64
2024/03/18 06:04:07;;;;;;;3.70;1.60;;;;;;;1.66;85.98;101727.38;108327;1258;138477;-64
2024/03/18 06:06:34;;;;;;;4.50;2.30;;;;;;;1.66;86.31;101728.86;108863;1256;59980;-63
2024/03/18 06:09:01;;;;;;;7.80;4.80;;;;;;;1.63;86.05;101733.34;108381;1258;139149;-67
2024/03/18 06:11:28;;;;;;;6.70;2.30;;;;;;;1.68;86.11;101727.31;108279;1257;74738;-64
2024/03/18 06:13:55;;;;;;;3.40;2.00;;;;;;;1.78;86.06;101730.86;108444;1260;66856;-64
2024/03/18 06:16:21;;;;;;;3.80;2.20;;;;;;;1.83;85.63;101728.43;108642;1256;139124;-64
2024/03/18 06:18:51;;;;;;;3.40;2.00;;;;;;;1.89;85.41;101732.56;104981;1264;62249;-62
2024/03/18 06:21:18;;;;;;;4.70;2.20;;;;;;;1.96;85.13;101730.34;107159;1257;138338;-63
2024/03/18 06:23:50;;;;;;;5.70;2.10;;;;;;;2.04;84.96;101731.41;108820;1257;75964;-63
2024/03/18 06:26:17;;;;;;;5.10;2.20;;;;;;;2.09;84.79;101726.23;108721;1257;66311;-62
2024/03/18 06:28:45;;;;;;;4.40;1.90;;;;;;;2.17;84.43;101731.52;108717;1257;138279;-62
2024/03/18 06:31:12;;;;;;;5.80;2.00;;;;;;;2.15;83.97;101728.98;108933;1257;60238;-64
2024/03/18 06:33:38;;;;;;;5.00;2.20;;;;;;;2.17;83.96;101729.11;108897;1256;138776;-64
2024/03/18 06:36:11;;;;;;;4.80;1.80;;;;;;;2.22;84.08;101730.32;108965;1257;74401;-64
2024/03/18 06:38:38;;;;;;;4.70;1.90;;;;;;;2.28;84.06;101728.55;108933;1258;65052;-64
2024/03/18 06:41:11;;;;;;;6.50;2.10;;;;;;;2.31;83.54;101731.39;108745;1257;138522;-64
2024/03/18 06:43:37;;;;;;;3.80;1.80;;;;;;;2.33;83.33;101730.82;108869;1258;59713;-64
2024/03/18 06:46:10;;;;;;;3.80;1.80;;;;;;;2.34;83.22;101730.70;108781;1257;138715;-64
2024/03/18 06:48:38;;;;;;;6.00;1.80;;;;;;;2.32;83.91;101731.27;109002;1257;77073;-62
2024/03/18 06:51:13;;;;;;;3.70;1.70;;;;;;;2.25;84.61;101728.11;108855;1257;138196;-63
2024/03/18 06:53:40;;;;;;;5.70;2.00;;;;;;;2.27;85.09;101728.77;108955;1256;72588;-63
2024/03/18 06:56:08;;;;;;;6.30;2.20;;;;;;;2.34;85.27;101730.18;109004;1256;59770;-64
2024/03/18 06:58:37;;;;;;;5.10;2.80;;;;;;;2.37;84.62;101728.33;108893;1257;138835;-64
2024/03/18 07:01:04;;;;;;;12.20;4.00;;;;;;;2.42;84.08;101725.75;108963;1257;76646;-63
2024/03/18 07:03:31;;;;;;;7.30;3.90;;;;;;;2.46;83.85;101728.64;108898;1257;139615;-64
2024/03/18 07:06:01;;;;;;;8.90;3.80;;;;;;;2.45;83.71;101728.06;108866;1256;72691;-63
2024/03/18 07:08:29;;;;;;;6.50;3.50;;;;;;;2.45;83.58;101727.51;108852;1255;60285;-64
2024/03/18 07:10:55;;;;;;;7.00;3.70;;;;;;;2.45;83.53;101724.38;108766;1256;138964;-63
2024/03/18 07:13:22;;;;;;;5.60;2.90;;;;;;;2.53;83.69;101727.42;109009;1257;75664;-64
2024/03/18 07:15:50;;;;;;;7.80;2.50;;;;;;;2.57;83.37;101726.83;108823;1257;138832;-64
2024/03/18 07:18:18;;;;;;;7.00;2.60;;;;;;;2.64;83.71;101721.10;108975;1256;71685;-64
2024/03/18 07:20:44;;;;;;;4.70;2.10;;;;;;;2.72;83.55;101716.66;108886;1256;138972;-65
2024/03/18 07:23:12;;;;;;;4.30;2.10;;;;;;;2.77;83.13;101726.04;108984;1256;60051;-64
2024/03/18 07:25:39;;;;;;;3.20;1.90;;;;;;;2.82;82.93;101729.20;108821;1256;75947;-63
2024/03/18 07:28:05;;;;;;;4.50;1.80;;;;;;;2.94;82.97;101725.84;106840;1256;138313;-67
2024/03/18 07:30:32;;;;;;;3.60;1.60;;;;;;;3.00;82.26;101724.69;104767;1258;71918;-68
2024/03/18 07:32:59;;;;;;;5.50;1.80;;;;;;;3.00;82.08;101727.48;104642;1257;139325;-69
2024/03/18 07:35:25;;;;;;;5.10;1.70;;;;;;;3.01;81.93;101728.63;104938;1258;61978;-67
2024/03/18 07:37:52;;;;;;;2.80;1.50;;;;;;;3.04;81.81;101729.65;104879;1257;75474;-66
2024/03/18 07:40:18;;;;;;;9.60;2.20;;;;;;;3.00;81.53;101733.88;104716;1260;140700;-68
2024/03/18 07:42:45;;;;;;;7.00;1.80;;;;;;;2.84;80.92;101737.98;104718;1261;72722;-68
2024/03/18 07:45:12;;;;;;;5.60;1.90;;;;;;;2.68;80.88;101736.33;104851;1257;138976;-67
2024/03/18 07:47:38;;;;;;;4.90;1.80;;;;;;;2.62;81.01;101741.98;104859;1257;62029;-68
2024/03/18 07:50:06;;;;;;;4.80;1.90;;;;;;;2.68;81.39;101744.84;104890;1257;76304;-68
2024/03/18 07:52:32;;;;;;;6.40;2.00;;;;;;;2.80;81.54;101748.95;107405;1257;138236;-68
2024/03/18 07:55:00;;;;;;;4.60;1.70;;;;;;;2.89;81.52;101749.99;104875;1258;71956;-68
2024/03/18 07:57:28;;;;;;;4.50;1.60;;;;;;;2.98;81.40;101755.44;105273;1262;138861;-68
2024/03/18 07:59:55;;;;;;;3.50;2.00;;;;;;;2.88;80.96;101755.79;105506;1260;62131;-68
2024/03/18 08:02:22;;;;;;;6.60;2.00;;;;;;;2.70;80.86;101757.64;104939;1257;75228;-68
2024/03/18 08:04:50;;;;;;;3.90;2.10;;;;;;;2.61;81.07;101756.58;104609;1261;137870;-68
2024/03/18 08:07:18;;;;;;;4.30;2.00;;;;;;;2.55;81.12;101762.89;105504;1257;73614;-67
2024/03/18 08:09:45;;;;;;;6.90;2.30;;;;;;;2.46;81.31;101764.64;105001;1260;138205;-67
2024/03/18 08:12:15;;;;;;;4.50;2.10;;;;;;;2.42;81.48;101766.63;105232;1258;62058;-67
2024/03/18 08:14:43;;;;;;;4.20;1.80;;;;;;;2.42;81.39;101768.86;104839;1260;138697;-67
2024/03/18 08:17:10;;;;;;;3.60;2.20;;;;;;;2.31;81.47;101770.64;105541;1257;66560;-68
2024/03/18 08:19:37;;;;;;;5.30;2.20;;;;;;;2.34;82.52;101764.67;104770;1259;74069;-67
2024/03/18 08:22:04;;;;;;;2.50;1.40;;;;;;;2.57;83.11;101763.74;104809;1260;138183;-68
2024/03/18 08:24:34;;;;;;;5.70;2.10;;;;;;;2.78;83.09;101761.27;105182;1256;62099;-68
2024/03/18 08:27:01;;;;;;;5.30;2.00;;;;;;;3.00;83.12;101758.53;104836;1257;138646;-68
2024/03/18 08:29:27;;;;;;;7.10;2.30;;;;;;;3.19;83.14;101753.66;104859;1259;66454;-68
2024/03/18 08:31:54;;;;;;;6.30;1.90;;;;;;;3.30;82.63;101750.98;104891;1256;73691;-68
2024/03/18 08:34:21;;;;;;;4.30;2.50;;;;;;;3.26;81.85;101756.23;104803;1257;138256;-68
2024/03/18 08:36:48;;;;;;;5.10;2.00;;;;;;;3.10;81.40;101754.05;100885;1258;5173360;-69
2024/03/18 08:39:14;;;;;;;3.70;1.90;;;;;;;2.85;81.16;101755.34;104777;1257;139094;-68
2024/03/18 08:41:41;;;;;;;4.10;2.00;;;;;;;2.78;81.75;101752.59;104835;1258;62649;-69
2024/03/18 08:44:07;;;;;;;3.70;1.80;;;;;;;2.79;81.92;101748.71;104961;1260;62540;-68
2024/03/18 08:46:34;;;;;;;5.10;2.00;;;;;;;2.87;82.40;101746.86;104769;1257;138596;-67
2024/03/18 08:49:01;;;;;;;5.20;1.80;;;;;;;3.03;82.69;101748.31;104866;1257;62058;-68
2024/03/18 08:51:27;;;;;;;4.60;2.10;;;;;;;3.20;82.64;101750.71;104870;1257;138439;-68
2024/03/18 08:53:54;;;;;;;7.30;2.00;;;;;;;3.20;81.75;101746.45;104900;1256;62255;-65
2024/03/18 08:56:21;;;;;;;4.90;1.70;;;;;;;3.13;82.06;101749.02;106034;1259;62132;-68
2024/03/18 08:58:50;;;;;;;5.30;1.70;;;;;;;3.15;81.76;101751.79;104849;1260;138188;-67
2024/03/18 09:01:16;;;;;;;6.80;1.80;;;;;;;3.33;82.01;101746.48;105006;1257;62048;-68
2024/03/18 09:03:43;;;;;;;6.40;2.00;;;;;;;3.60;81.99;101751.83;104864;1260;138920;-68
2024/03/18 09:06:10;;;;;;;4.40;1.90;;;;;;;3.90;81.74;101755.41;104871;1257;66296;-68
2024/03/18 09:08:38;;;;;;;3.40;1.50;;;;;;;4.07;81.04;101757.41;104816;1256;73567;-68
2024/03/18 09:11:05;;;;;;;2.30;1.70;;;;;;;4.12;80.30;101755.67;104657;1263;138080;-67
2024/03/18 09:13:31;;;;;;;4.40;1.70;;;;;;;4.12;79.90;101758.30;104840;1257;62151;-69
2024/03/18 09:15:58;;;;;;;5.70;2.20;;;;;;;4.05;79.79;101753.66;104839;1256;138144;-69
2024/03/18 09:18:24;;;;;;;4.00;1.80;;;;;;;4.06;79.77;101757.94;104822;1262;66047;-69
2024/03/18 09:20:54;;;;;;;5.10;1.80;;;;;;;4.12;79.64;101762.77;104920;1259;138533;-63
2024/03/18 09:23:21;;;;;;;4.10;2.10;;;;;;;4.13;79.29;101759.41;106037;1256;61177;-64
2024/03/18 09:25:49;;;;;;;7.50;2.40;;;;;;;4.28;79.79;101763.35;108898;1256;59945;-63
2024/03/18 09:28:16;;;;;;;5.80;2.30;;;;;;;4.48;79.43;101761.66;108904;1256;138676;-63
2024/03/18 09:30:43;;;;;;;4.90;2.30;;;;;;;4.58;79.29;101759.20;108949;1256;66281;-63
2024/03/18 09:33:11;;;;;;;6.40;2.50;;;;;;;4.76;79.56;101757.95;108827;1256;137802;-63
2024/03/18 09:35:38;;;;;;;5.90;2.50;;;;;;;4.93;78.99;101758.89;109014;1257;59914;-63
2024/03/18 09:38:04;;;;;;;5.50;2.30;;;;;;;5.01;78.64;101759.20;108945;1257;59779;-62
2024/03/18 09:40:31;;;;;;;6.30;2.60;;;;;;;4.95;77.42;101772.05;108877;1256;138023;-62
2024/03/18 09:42:57;;;;;;;3.80;1.80;;;;;;;4.61;76.40;101768.84;108921;1257;64062;-62
2024/03/18 09:45:24;;;;;;;4.40;1.70;;;;;;;4.48;76.83;101772.84;108885;1256;137941;-62
2024/03/18 09:47:51;;;;;;;5.00;2.30;;;;;;;4.40;76.90;101761.23;108940;1257;59767;-63
2024/03/18 09:50:17;;;;;;;5.60;2.00;;;;;;;4.49;77.28;101771.19;107602;1257;59908;-63
2024/03/18 09:52:45;;;;;;;4.80;1.60;;;;;;;4.63;77.33;101773.83;104845;1256;138192;-63
2024/03/18 09:55:17;;;;;;;4.20;1.40;;;;;;;4.76;76.87;101769.46;104989;1257;68760;-63
2024/03/18 09:57:43;;;;;;;2.00;1.10;;;;;;;4.86;76.57;101772.71;104765;1257;138759;-62
2024/03/18 10:00:10;;;;;;;2.30;1.10;;;;;;;4.96;76.39;101768.95;104814;1256;62164;-62
2024/03/18 10:02:37;;;;;;;2.90;1.70;;;;;;;5.14;76.18;101771.52;106508;1257;62057;-62
2024/03/18 10:05:09;;;;;;;3.00;1.50;;;;;;;5.26;75.73;101769.51;108050;1256;137374;-63
2024/03/18 10:07:37;;;;;;;5.30;1.70;;;;;;;5.27;74.74;101774.62;109017;1256;67260;-63
2024/03/18 10:10:04;;;;;;;4.20;1.30;;;;;;;5.16;74.06;101773.55;105559;1257;137451;-63
2024/03/18 10:12:31;;;;;;;3.80;1.20;;;;;;;5.15;74.39;101760.80;104810;1256;62182;-63
2024/03/18 10:14:57;;;;;;;3.80;2.20;;;;;;;5.38;74.82;101762.75;105097;1256;137698;-63
2024/03/18 10:17:25;;;;;;;3.50;1.60;;;;;;;5.53;74.52;101767.17;108951;1256;60835;-63
2024/03/18 10:19:52;;;;;;;2.40;1.20;;;;;;;5.60;74.19;101768.63;109058;1256;66301;-63
2024/03/18 10:22:18;;;;;;;1.90;1.30;;;;;;;5.54;73.66;101764.45;108942;1255;137454;-63
2024/03/18 10:24:45;;;;;;;4.60;1.30;;;;;;;5.52;73.41;101766.02;108924;1256;59881;-62
2024/03/18 10:27:12;;;;;;;3.70;1.40;;;;;;;5.48;73.31;101766.13;108896;1256;138346;-63
2024/03/18 10:29:40;;;;;;;3.70;1.30;;;;;;;5.55;73.53;101763.58;108924;1256;73452;-63
2024/03/18 10:32:26;;;;;;;2.50;1.20;;;;;;;5.69;73.32;101771.25;108854;1256;64876;-63
2024/03/18 10:34:57;;;;;;;2.30;1.10;;;;;;;5.60;72.76;101767.43;108837;1256;138608;-64
2024/03/18 10:37:23;;;;;;;3.90;1.40;;;;;;;5.59;72.23;101775.36;107621;1256;62284;-62
2024/03/18 10:40:05;;;;;;;1.50;1.00;;;;;;;5.44;71.80;101771.45;104510;1257;138331;-63
2024/03/18 10:42:32;;;;;;;2.40;1.20;;;;;;;5.35;71.87;101765.55;108936;1255;75588;-64
2024/03/18 10:45:16;;;;;;;3.40;1.20;;;;;;;5.49;72.12;101766.38;108903;1257;138627;-63
2024/03/18 10:47:43;;;;;;;5.60;1.30;;;;;;;5.60;71.81;101766.91;108854;1256;70889;-63
2024/03/18 10:50:13;;;;;;;2.30;1.00;;;;;;;5.58;71.02;101764.65;105227;1257;62113;-63
2024/03/18 10:52:39;;;;;;;3.30;1.00;;;;;;;5.61;70.83;101765.03;108967;1256;137882;-63
2024/03/18 10:55:19;;;;;;;2.20;0.90;;;;;;;5.53;70.56;101763.16;108933;1256;74725;-62
2024/03/18 10:57:59;;;;;;;2.20;0.70;;;;;;;5.60;70.63;101752.42;108833;1256;137859;-62
2024/03/18 11:00:27;;;;;;;4.30;1.10;;;;;;;5.69;70.41;101753.00;107635;1256;72784;-63
2024/03/18 11:03:01;;;;;;;1.60;0.80;;;;;;;5.73;70.18;101751.83;104729;1256;137849;-62
2024/03/18 11:05:29;;;;;;;1.40;0.90;;;;;;;5.66;68.80;101754.73;109047;1256;60178;-63
2024/03/18 11:08:00;;;;;;;0.80;0.70;;;;;;;5.58;69.06;101758.91;105468;1257;75560;-63
2024/03/18 11:10:30;;;;;;;2.80;1.30;;;;;;;5.53;68.37;101759.65;108894;1256;137946;-63
2024/03/18 11:13:11;;;;;;;1.20;0.90;;;;;;;5.37;67.06;101763.20;108078;1256;72537;-63
2024/03/18 11:15:38;;;;;;;9.50;1.50;;;;;;;5.28;68.42;101751.84;108770;1255;138022;-63
2024/03/18 11:18:06;;;;;;;2.00;0.80;;;;;;;5.59;68.88;101758.45;109004;1256;60294;-63
2024/03/18 11:20:46;;;;;;;1.50;0.70;;;;;;;5.75;68.39;101754.89;108263;1256;75835;-63
2024/03/18 11:23:17;;;;;;;1.50;1.20;;;;;;;5.79;68.09;101757.23;108942;1256;66307;-63